Lake Emily, Wisconsin
Current Conditions -  °F | °C
As of 8:55 PM on Thursday 18 Dec 2014 (Local Time) from KSTE Reporting Station
Clear Clear  
Wind Chill: 15°   Ceiling: Unl
Heat Index: 15°   Visibility: 10mi
Dew Point: 13°   Wind: 0mph
Humidity: 94%   Direction: NA
Pressure: 30.25"   Gusts: NA
Location:  44.5312°N, 89.2955°W
Report Text: KSTE 190255Z AUTO 00000KT 10SM CLR M10/M10 A3025 RMK AO2 T10971105
Loading
Personal Weather Stations






























Interactive Weather Map New forecast layout! Learn more

10-Day Weather Forecast

Advertisements
Track Severe Weather on mobile